sensor_id;sensor_type;location;lat;lon;timestamp;P1;durP1;ratioP1;P2;durP2;ratioP2
60722;SDS011;46574;52.818;6.516;2023-07-30T00:00:56;8.40;;;4.18;;
60722;SDS011;46574;52.818;6.516;2023-07-30T00:03:21;7.72;;;4.15;;
60722;SDS011;46574;52.818;6.516;2023-07-30T00:05:54;9.77;;;4.35;;
60722;SDS011;46574;52.818;6.516;2023-07-30T00:08:21;9.68;;;4.32;;
60722;SDS011;46574;52.818;6.516;2023-07-30T00:10:48;8.07;;;4.53;;
60722;SDS011;46574;52.818;6.516;2023-07-30T00:13:14;8.68;;;4.13;;
60722;SDS011;46574;52.818;6.516;2023-07-30T00:15:40;9.82;;;4.47;;
60722;SDS011;46574;52.818;6.516;2023-07-30T00:18:05;7.13;;;4.07;;
60722;SDS011;46574;52.818;6.516;2023-07-30T00:20:31;7.32;;;4.32;;
60722;SDS011;46574;52.818;6.516;2023-07-30T00:22:58;8.68;;;4.50;;
60722;SDS011;46574;52.818;6.516;2023-07-30T00:25:24;7.97;;;4.63;;
60722;SDS011;46574;52.818;6.516;2023-07-30T00:27:50;9.15;;;4.60;;
60722;SDS011;46574;52.818;6.516;2023-07-30T00:30:15;6.00;;;4.15;;
60722;SDS011;46574;52.818;6.516;2023-07-30T00:32:41;11.18;;;4.95;;
60722;SDS011;46574;52.818;6.516;2023-07-30T00:35:09;9.98;;;4.47;;
60722;SDS011;46574;52.818;6.516;2023-07-30T00:37:35;7.72;;;4.85;;
60722;SDS011;46574;52.818;6.516;2023-07-30T00:40:01;10.35;;;4.78;;
60722;SDS011;46574;52.818;6.516;2023-07-30T00:42:28;9.43;;;4.13;;
60722;SDS011;46574;52.818;6.516;2023-07-30T00:44:54;8.30;;;4.90;;
60722;SDS011;46574;52.818;6.516;2023-07-30T00:47:20;9.20;;;4.40;;
60722;SDS011;46574;52.818;6.516;2023-07-30T00:49:47;9.68;;;4.38;;
60722;SDS011;46574;52.818;6.516;2023-07-30T00:52:14;7.63;;;4.53;;
60722;SDS011;46574;52.818;6.516;2023-07-30T00:54:45;7.40;;;3.95;;
60722;SDS011;46574;52.818;6.516;2023-07-30T00:57:13;9.43;;;5.32;;
60722;SDS011;46574;52.818;6.516;2023-07-30T00:59:39;6.97;;;4.93;;
60722;SDS011;46574;52.818;6.516;2023-07-30T01:02:05;7.50;;;4.68;;
60722;SDS011;46574;52.818;6.516;2023-07-30T01:04:31;8.85;;;5.00;;
60722;SDS011;46574;52.818;6.516;2023-07-30T01:06:57;6.60;;;4.55;;
60722;SDS011;46574;52.818;6.516;2023-07-30T01:09:23;9.80;;;4.85;;
60722;SDS011;46574;52.818;6.516;2023-07-30T01:11:49;10.43;;;4.57;;
60722;SDS011;46574;52.818;6.516;2023-07-30T01:14:17;10.67;;;4.87;;
60722;SDS011;46574;52.818;6.516;2023-07-30T01:16:45;10.20;;;4.88;;
60722;SDS011;46574;52.818;6.516;2023-07-30T01:19:11;7.53;;;4.68;;
60722;SDS011;46574;52.818;6.516;2023-07-30T01:21:36;9.25;;;4.70;;
60722;SDS011;46574;52.818;6.516;2023-07-30T01:24:02;10.32;;;4.45;;
60722;SDS011;46574;52.818;6.516;2023-07-30T01:26:51;10.73;;;5.03;;
60722;SDS011;46574;52.818;6.516;2023-07-30T01:29:22;10.63;;;4.78;;
60722;SDS011;46574;52.818;6.516;2023-07-30T01:31:54;12.27;;;4.85;;
60722;SDS011;46574;52.818;6.516;2023-07-30T01:34:25;9.10;;;4.75;;
60722;SDS011;46574;52.818;6.516;2023-07-30T01:36:53;8.93;;;4.63;;
60722;SDS011;46574;52.818;6.516;2023-07-30T01:39:19;11.20;;;5.30;;
60722;SDS011;46574;52.818;6.516;2023-07-30T01:41:47;10.77;;;4.90;;
60722;SDS011;46574;52.818;6.516;2023-07-30T01:44:12;9.82;;;4.55;;
60722;SDS011;46574;52.818;6.516;2023-07-30T01:46:38;10.93;;;5.18;;
60722;SDS011;46574;52.818;6.516;2023-07-30T01:49:04;10.40;;;5.00;;
60722;SDS011;46574;52.818;6.516;2023-07-30T01:51:29;9.25;;;5.20;;
60722;SDS011;46574;52.818;6.516;2023-07-30T01:53:55;8.93;;;4.28;;
60722;SDS011;46574;52.818;6.516;2023-07-30T01:56:21;11.00;;;5.10;;
60722;SDS011;46574;52.818;6.516;2023-07-30T01:58:46;10.77;;;5.13;;
60722;SDS011;46574;52.818;6.516;2023-07-30T02:01:12;8.52;;;4.70;;
60722;SDS011;46574;52.818;6.516;2023-07-30T02:03:38;9.50;;;5.25;;
60722;SDS011;46574;52.818;6.516;2023-07-30T02:06:04;7.07;;;4.03;;
60722;SDS011;46574;52.818;6.516;2023-07-30T02:08:30;9.27;;;4.75;;
60722;SDS011;46574;52.818;6.516;2023-07-30T02:10:59;8.98;;;4.40;;
60722;SDS011;46574;52.818;6.516;2023-07-30T02:13:26;9.02;;;4.63;;
60722;SDS011;46574;52.818;6.516;2023-07-30T02:15:51;9.48;;;4.65;;
60722;SDS011;46574;52.818;6.516;2023-07-30T02:18:17;10.95;;;4.07;;
60722;SDS011;46574;52.818;6.516;2023-07-30T02:20:43;10.75;;;4.70;;
60722;SDS011;46574;52.818;6.516;2023-07-30T02:23:09;9.27;;;4.78;;
60722;SDS011;46574;52.818;6.516;2023-07-30T02:25:37;8.13;;;4.13;;
60722;SDS011;46574;52.818;6.516;2023-07-30T02:28:03;10.55;;;4.15;;
60722;SDS011;46574;52.818;6.516;2023-07-30T02:32:58;10.63;;;4.22;;
60722;SDS011;46574;52.818;6.516;2023-07-30T02:35:23;15.10;;;4.82;;
60722;SDS011;46574;52.818;6.516;2023-07-30T02:37:49;7.60;;;3.90;;
60722;SDS011;46574;52.818;6.516;2023-07-30T02:40:15;8.18;;;3.90;;
60722;SDS011;46574;52.818;6.516;2023-07-30T02:42:40;10.52;;;3.90;;
60722;SDS011;46574;52.818;6.516;2023-07-30T02:45:06;7.03;;;3.63;;
60722;SDS011;46574;52.818;6.516;2023-07-30T02:47:32;9.18;;;4.07;;
60722;SDS011;46574;52.818;6.516;2023-07-30T02:49:58;9.07;;;4.38;;
60722;SDS011;46574;52.818;6.516;2023-07-30T02:52:24;8.25;;;3.80;;
60722;SDS011;46574;52.818;6.516;2023-07-30T02:54:49;6.57;;;3.80;;
60722;SDS011;46574;52.818;6.516;2023-07-30T02:57:15;8.85;;;3.53;;
60722;SDS011;46574;52.818;6.516;2023-07-30T02:59:41;7.72;;;3.75;;
60722;SDS011;46574;52.818;6.516;2023-07-30T03:02:06;11.27;;;3.72;;
60722;SDS011;46574;52.818;6.516;2023-07-30T03:04:33;9.23;;;3.88;;
60722;SDS011;46574;52.818;6.516;2023-07-30T03:06:59;8.20;;;3.55;;
60722;SDS011;46574;52.818;6.516;2023-07-30T03:09:24;8.82;;;3.20;;
60722;SDS011;46574;52.818;6.516;2023-07-30T03:11:50;10.80;;;3.40;;
60722;SDS011;46574;52.818;6.516;2023-07-30T03:14:16;8.65;;;3.63;;
60722;SDS011;46574;52.818;6.516;2023-07-30T03:16:45;8.90;;;3.17;;
60722;SDS011;46574;52.818;6.516;2023-07-30T03:21:40;8.50;;;3.40;;
60722;SDS011;46574;52.818;6.516;2023-07-30T03:24:06;9.63;;;3.67;;
60722;SDS011;46574;52.818;6.516;2023-07-30T03:26:32;7.43;;;3.10;;
60722;SDS011;46574;52.818;6.516;2023-07-30T03:28:57;7.90;;;3.70;;
60722;SDS011;46574;52.818;6.516;2023-07-30T03:31:23;7.95;;;3.45;;
60722;SDS011;46574;52.818;6.516;2023-07-30T03:33:49;8.50;;;3.85;;
60722;SDS011;46574;52.818;6.516;2023-07-30T03:36:14;9.25;;;3.20;;
60722;SDS011;46574;52.818;6.516;2023-07-30T03:38:43;8.00;;;3.70;;
60722;SDS011;46574;52.818;6.516;2023-07-30T03:41:12;7.18;;;3.13;;
60722;SDS011;46574;52.818;6.516;2023-07-30T03:46:03;6.55;;;3.58;;
60722;SDS011;46574;52.818;6.516;2023-07-30T03:48:29;7.93;;;3.40;;
60722;SDS011;46574;52.818;6.516;2023-07-30T03:50:55;9.88;;;3.90;;
60722;SDS011;46574;52.818;6.516;2023-07-30T03:53:21;7.57;;;3.78;;
60722;SDS011;46574;52.818;6.516;2023-07-30T03:55:47;7.57;;;3.60;;
60722;SDS011;46574;52.818;6.516;2023-07-30T03:58:13;8.05;;;3.08;;
60722;SDS011;46574;52.818;6.516;2023-07-30T04:00:39;8.98;;;3.35;;
60722;SDS011;46574;52.818;6.516;2023-07-30T04:03:05;8.93;;;3.58;;
60722;SDS011;46574;52.818;6.516;2023-07-30T04:05:31;7.43;;;3.40;;
60722;SDS011;46574;52.818;6.516;2023-07-30T04:07:57;4.60;;;2.92;;
60722;SDS011;46574;52.818;6.516;2023-07-30T04:10:22;7.18;;;3.67;;
60722;SDS011;46574;52.818;6.516;2023-07-30T04:12:48;8.23;;;3.38;;
60722;SDS011;46574;52.818;6.516;2023-07-30T04:15:14;9.80;;;3.20;;
60722;SDS011;46574;52.818;6.516;2023-07-30T04:17:41;7.32;;;3.15;;
60722;SDS011;46574;52.818;6.516;2023-07-30T04:20:07;7.60;;;3.65;;
60722;SDS011;46574;52.818;6.516;2023-07-30T04:22:36;9.18;;;3.72;;
60722;SDS011;46574;52.818;6.516;2023-07-30T04:25:02;7.60;;;3.40;;
60722;SDS011;46574;52.818;6.516;2023-07-30T04:27:28;10.23;;;3.90;;
60722;SDS011;46574;52.818;6.516;2023-07-30T04:29:54;8.57;;;3.45;;
60722;SDS011;46574;52.818;6.516;2023-07-30T04:32:20;6.28;;;3.25;;
60722;SDS011;46574;52.818;6.516;2023-07-30T04:34:46;7.40;;;3.30;;
60722;SDS011;46574;52.818;6.516;2023-07-30T04:37:11;9.13;;;3.75;;
60722;SDS011;46574;52.818;6.516;2023-07-30T04:39:37;7.97;;;3.35;;
60722;SDS011;46574;52.818;6.516;2023-07-30T04:42:03;8.13;;;2.90;;
60722;SDS011;46574;52.818;6.516;2023-07-30T04:44:29;7.60;;;3.20;;
60722;SDS011;46574;52.818;6.516;2023-07-30T04:46:57;10.80;;;3.33;;
60722;SDS011;46574;52.818;6.516;2023-07-30T04:49:23;10.63;;;3.75;;
60722;SDS011;46574;52.818;6.516;2023-07-30T04:51:49;6.88;;;3.70;;
60722;SDS011;46574;52.818;6.516;2023-07-30T04:54:14;6.55;;;2.95;;
60722;SDS011;46574;52.818;6.516;2023-07-30T04:56:40;5.75;;;3.25;;
60722;SDS011;46574;52.818;6.516;2023-07-30T04:59:06;8.63;;;3.58;;
60722;SDS011;46574;52.818;6.516;2023-07-30T05:01:32;13.52;;;3.90;;
60722;SDS011;46574;52.818;6.516;2023-07-30T05:03:58;11.60;;;3.85;;
60722;SDS011;46574;52.818;6.516;2023-07-30T05:06:24;5.55;;;3.15;;
60722;SDS011;46574;52.818;6.516;2023-07-30T05:08:49;7.07;;;3.40;;
60722;SDS011;46574;52.818;6.516;2023-07-30T05:11:15;8.57;;;3.85;;
60722;SDS011;46574;52.818;6.516;2023-07-30T05:13:41;12.35;;;4.40;;
60722;SDS011;46574;52.818;6.516;2023-07-30T05:16:06;9.77;;;4.18;;
60722;SDS011;46574;52.818;6.516;2023-07-30T05:18:32;10.65;;;3.88;;
60722;SDS011;46574;52.818;6.516;2023-07-30T05:20:58;10.88;;;3.90;;
60722;SDS011;46574;52.818;6.516;2023-07-30T05:23:24;12.27;;;4.25;;
60722;SDS011;46574;52.818;6.516;2023-07-30T05:25:59;8.60;;;3.72;;
60722;SDS011;46574;52.818;6.516;2023-07-30T05:28:25;10.90;;;4.18;;
60722;SDS011;46574;52.818;6.516;2023-07-30T05:30:51;13.48;;;4.43;;
60722;SDS011;46574;52.818;6.516;2023-07-30T05:33:17;10.32;;;4.10;;
60722;SDS011;46574;52.818;6.516;2023-07-30T05:35:42;10.93;;;3.63;;
60722;SDS011;46574;52.818;6.516;2023-07-30T05:38:09;11.07;;;4.47;;
60722;SDS011;46574;52.818;6.516;2023-07-30T05:40:35;11.63;;;3.90;;
60722;SDS011;46574;52.818;6.516;2023-07-30T05:43:01;10.10;;;3.58;;
60722;SDS011;46574;52.818;6.516;2023-07-30T05:45:27;7.05;;;3.30;;
60722;SDS011;46574;52.818;6.516;2023-07-30T05:47:53;9.13;;;4.00;;
60722;SDS011;46574;52.818;6.516;2023-07-30T05:50:19;9.02;;;3.72;;
60722;SDS011;46574;52.818;6.516;2023-07-30T05:52:45;11.07;;;4.10;;
60722;SDS011;46574;52.818;6.516;2023-07-30T05:55:10;9.02;;;4.00;;
60722;SDS011;46574;52.818;6.516;2023-07-30T05:57:36;12.00;;;4.32;;
60722;SDS011;46574;52.818;6.516;2023-07-30T06:00:02;9.13;;;4.28;;
60722;SDS011;46574;52.818;6.516;2023-07-30T06:02:27;12.52;;;4.22;;
60722;SDS011;46574;52.818;6.516;2023-07-30T06:04:53;14.43;;;4.90;;
60722;SDS011;46574;52.818;6.516;2023-07-30T06:07:19;12.98;;;4.85;;
60722;SDS011;46574;52.818;6.516;2023-07-30T06:09:44;9.27;;;4.00;;
60722;SDS011;46574;52.818;6.516;2023-07-30T06:12:10;10.25;;;4.80;;
60722;SDS011;46574;52.818;6.516;2023-07-30T06:14:36;10.52;;;4.38;;
60722;SDS011;46574;52.818;6.516;2023-07-30T06:17:02;14.02;;;4.55;;
60722;SDS011;46574;52.818;6.516;2023-07-30T06:19:27;11.45;;;4.45;;
60722;SDS011;46574;52.818;6.516;2023-07-30T06:21:53;10.27;;;4.30;;
60722;SDS011;46574;52.818;6.516;2023-07-30T06:24:19;12.20;;;4.72;;
60722;SDS011;46574;52.818;6.516;2023-07-30T06:26:44;12.30;;;4.45;;
60722;SDS011;46574;52.818;6.516;2023-07-30T06:29:10;10.15;;;4.00;;
60722;SDS011;46574;52.818;6.516;2023-07-30T06:31:35;10.25;;;4.10;;
60722;SDS011;46574;52.818;6.516;2023-07-30T06:34:01;11.60;;;4.35;;
60722;SDS011;46574;52.818;6.516;2023-07-30T06:36:27;7.65;;;4.03;;
60722;SDS011;46574;52.818;6.516;2023-07-30T06:38:52;9.75;;;3.47;;
60722;SDS011;46574;52.818;6.516;2023-07-30T06:41:18;10.25;;;3.80;;
60722;SDS011;46574;52.818;6.516;2023-07-30T06:43:44;11.88;;;4.93;;
60722;SDS011;46574;52.818;6.516;2023-07-30T06:46:10;9.35;;;4.38;;
60722;SDS011;46574;52.818;6.516;2023-07-30T06:48:36;12.48;;;3.97;;
60722;SDS011;46574;52.818;6.516;2023-07-30T06:51:05;10.45;;;4.10;;
60722;SDS011;46574;52.818;6.516;2023-07-30T06:53:32;10.63;;;3.92;;
60722;SDS011;46574;52.818;6.516;2023-07-30T06:55:58;9.27;;;3.50;;
60722;SDS011;46574;52.818;6.516;2023-07-30T06:58:23;9.10;;;3.30;;
60722;SDS011;46574;52.818;6.516;2023-07-30T07:00:50;12.13;;;3.80;;
60722;SDS011;46574;52.818;6.516;2023-07-30T07:03:16;12.60;;;5.03;;
60722;SDS011;46574;52.818;6.516;2023-07-30T07:05:42;9.82;;;3.00;;
60722;SDS011;46574;52.818;6.516;2023-07-30T07:08:08;8.30;;;3.22;;
60722;SDS011;46574;52.818;6.516;2023-07-30T07:10:33;8.70;;;3.28;;
60722;SDS011;46574;52.818;6.516;2023-07-30T07:12:59;7.65;;;2.90;;
60722;SDS011;46574;52.818;6.516;2023-07-30T07:15:25;10.82;;;3.50;;
60722;SDS011;46574;52.818;6.516;2023-07-30T07:17:51;18.75;;;4.32;;
60722;SDS011;46574;52.818;6.516;2023-07-30T07:20:16;12.38;;;3.33;;
60722;SDS011;46574;52.818;6.516;2023-07-30T07:22:43;11.40;;;3.72;;
60722;SDS011;46574;52.818;6.516;2023-07-30T07:25:09;9.75;;;3.20;;
60722;SDS011;46574;52.818;6.516;2023-07-30T07:27:35;8.35;;;2.83;;
60722;SDS011;46574;52.818;6.516;2023-07-30T07:30:00;9.35;;;3.15;;
60722;SDS011;46574;52.818;6.516;2023-07-30T07:32:26;11.65;;;3.20;;
60722;SDS011;46574;52.818;6.516;2023-07-30T07:34:52;13.23;;;3.42;;
60722;SDS011;46574;52.818;6.516;2023-07-30T07:37:18;6.40;;;2.67;;
60722;SDS011;46574;52.818;6.516;2023-07-30T07:39:44;9.07;;;2.90;;
60722;SDS011;46574;52.818;6.516;2023-07-30T07:42:10;11.18;;;3.17;;
60722;SDS011;46574;52.818;6.516;2023-07-30T07:44:36;8.48;;;2.92;;
60722;SDS011;46574;52.818;6.516;2023-07-30T07:47:02;5.97;;;2.42;;
60722;SDS011;46574;52.818;6.516;2023-07-30T07:49:28;8.73;;;2.78;;
60722;SDS011;46574;52.818;6.516;2023-07-30T07:51:54;10.32;;;2.97;;
60722;SDS011;46574;52.818;6.516;2023-07-30T07:54:20;9.32;;;2.95;;
60722;SDS011;46574;52.818;6.516;2023-07-30T07:56:46;7.50;;;3.45;;
60722;SDS011;46574;52.818;6.516;2023-07-30T07:59:11;9.60;;;3.30;;
60722;SDS011;46574;52.818;6.516;2023-07-30T08:01:37;8.73;;;3.15;;
60722;SDS011;46574;52.818;6.516;2023-07-30T08:04:03;8.13;;;2.70;;
60722;SDS011;46574;52.818;6.516;2023-07-30T08:06:29;9.32;;;3.15;;
60722;SDS011;46574;52.818;6.516;2023-07-30T08:08:56;7.20;;;2.92;;
60722;SDS011;46574;52.818;6.516;2023-07-30T08:11:22;6.57;;;2.75;;
60722;SDS011;46574;52.818;6.516;2023-07-30T08:13:47;6.38;;;2.70;;
60722;SDS011;46574;52.818;6.516;2023-07-30T08:16:14;8.32;;;3.13;;
60722;SDS011;46574;52.818;6.516;2023-07-30T08:18:39;6.75;;;2.60;;
60722;SDS011;46574;52.818;6.516;2023-07-30T08:21:05;8.10;;;2.45;;
60722;SDS011;46574;52.818;6.516;2023-07-30T08:23:31;7.70;;;2.42;;
60722;SDS011;46574;52.818;6.516;2023-07-30T08:26:00;8.52;;;2.45;;
60722;SDS011;46574;52.818;6.516;2023-07-30T08:28:25;5.88;;;2.55;;
60722;SDS011;46574;52.818;6.516;2023-07-30T08:30:51;5.72;;;2.33;;
60722;SDS011;46574;52.818;6.516;2023-07-30T08:33:17;5.38;;;2.97;;
60722;SDS011;46574;52.818;6.516;2023-07-30T08:35:42;8.18;;;2.50;;
60722;SDS011;46574;52.818;6.516;2023-07-30T08:40:37;7.93;;;2.88;;
60722;SDS011;46574;52.818;6.516;2023-07-30T08:43:02;8.40;;;3.25;;
60722;SDS011;46574;52.818;6.516;2023-07-30T08:45:29;13.50;;;4.32;;
60722;SDS011;46574;52.818;6.516;2023-07-30T08:47:55;12.38;;;4.95;;
60722;SDS011;46574;52.818;6.516;2023-07-30T08:50:21;8.73;;;3.85;;
60722;SDS011;46574;52.818;6.516;2023-07-30T08:52:47;10.70;;;4.30;;
60722;SDS011;46574;52.818;6.516;2023-07-30T08:55:14;11.05;;;3.40;;
60722;SDS011;46574;52.818;6.516;2023-07-30T08:57:42;8.52;;;3.90;;
60722;SDS011;46574;52.818;6.516;2023-07-30T09:00:09;10.93;;;4.45;;
60722;SDS011;46574;52.818;6.516;2023-07-30T09:05:06;8.00;;;4.22;;
60722;SDS011;46574;52.818;6.516;2023-07-30T09:07:32;8.38;;;4.03;;
60722;SDS011;46574;52.818;6.516;2023-07-30T09:09:59;11.68;;;4.53;;
60722;SDS011;46574;52.818;6.516;2023-07-30T09:12:25;8.40;;;3.95;;
60722;SDS011;46574;52.818;6.516;2023-07-30T09:14:58;10.85;;;4.15;;
60722;SDS011;46574;52.818;6.516;2023-07-30T09:17:26;10.32;;;3.92;;
60722;SDS011;46574;52.818;6.516;2023-07-30T09:19:52;6.70;;;3.70;;
60722;SDS011;46574;52.818;6.516;2023-07-30T09:22:27;7.63;;;3.50;;
60722;SDS011;46574;52.818;6.516;2023-07-30T09:24:55;6.82;;;3.53;;
60722;SDS011;46574;52.818;6.516;2023-07-30T09:27:22;8.95;;;3.75;;
60722;SDS011;46574;52.818;6.516;2023-07-30T09:30:00;7.63;;;3.50;;
60722;SDS011;46574;52.818;6.516;2023-07-30T09:32:32;7.43;;;3.45;;
60722;SDS011;46574;52.818;6.516;2023-07-30T09:35:05;9.35;;;3.85;;
60722;SDS011;46574;52.818;6.516;2023-07-30T09:37:41;8.82;;;4.10;;
60722;SDS011;46574;52.818;6.516;2023-07-30T09:40:07;10.32;;;4.18;;
60722;SDS011;46574;52.818;6.516;2023-07-30T09:42:35;6.35;;;2.97;;
60722;SDS011;46574;52.818;6.516;2023-07-30T09:45:04;8.18;;;2.78;;
60722;SDS011;46574;52.818;6.516;2023-07-30T09:47:34;5.05;;;1.90;;
60722;SDS011;46574;52.818;6.516;2023-07-30T09:50:04;3.90;;;1.52;;
60722;SDS011;46574;52.818;6.516;2023-07-30T09:52:30;6.38;;;1.95;;
60722;SDS011;46574;52.818;6.516;2023-07-30T09:54:57;6.13;;;2.00;;
60722;SDS011;46574;52.818;6.516;2023-07-30T09:57:23;5.82;;;2.63;;
60722;SDS011;46574;52.818;6.516;2023-07-30T09:59:49;6.75;;;2.75;;
60722;SDS011;46574;52.818;6.516;2023-07-30T10:02:15;4.35;;;2.22;;
60722;SDS011;46574;52.818;6.516;2023-07-30T10:04:43;4.28;;;1.90;;
60722;SDS011;46574;52.818;6.516;2023-07-30T10:07:13;4.18;;;2.13;;
60722;SDS011;46574;52.818;6.516;2023-07-30T10:09:43;4.90;;;2.13;;
60722;SDS011;46574;52.818;6.516;2023-07-30T10:12:16;4.93;;;2.30;;
60722;SDS011;46574;52.818;6.516;2023-07-30T10:14:45;4.95;;;2.42;;
60722;SDS011;46574;52.818;6.516;2023-07-30T10:17:12;6.15;;;2.10;;
60722;SDS011;46574;52.818;6.516;2023-07-30T10:19:37;5.75;;;2.13;;
60722;SDS011;46574;52.818;6.516;2023-07-30T10:24:39;5.75;;;2.38;;
60722;SDS011;46574;52.818;6.516;2023-07-30T10:27:05;6.45;;;2.30;;
60722;SDS011;46574;52.818;6.516;2023-07-30T10:29:35;5.40;;;2.00;;
60722;SDS011;46574;52.818;6.516;2023-07-30T10:32:03;6.38;;;2.42;;
60722;SDS011;46574;52.818;6.516;2023-07-30T10:35:02;5.70;;;2.75;;
60722;SDS011;46574;52.818;6.516;2023-07-30T10:37:22;8.07;;;2.75;;
60722;SDS011;46574;52.818;6.516;2023-07-30T10:39:50;11.57;;;3.45;;
60722;SDS011;46574;52.818;6.516;2023-07-30T10:42:17;6.60;;;2.97;;
60722;SDS011;46574;52.818;6.516;2023-07-30T10:44:44;7.55;;;2.67;;
60722;SDS011;46574;52.818;6.516;2023-07-30T10:47:10;7.38;;;2.65;;
60722;SDS011;46574;52.818;6.516;2023-07-30T10:49:41;7.22;;;2.28;;
60722;SDS011;46574;52.818;6.516;2023-07-30T10:52:09;7.43;;;2.90;;
60722;SDS011;46574;52.818;6.516;2023-07-30T10:54:35;7.05;;;2.50;;
60722;SDS011;46574;52.818;6.516;2023-07-30T10:57:02;7.00;;;2.67;;
60722;SDS011;46574;52.818;6.516;2023-07-30T10:59:37;10.85;;;3.08;;
60722;SDS011;46574;52.818;6.516;2023-07-30T11:02:03;8.30;;;2.97;;
60722;SDS011;46574;52.818;6.516;2023-07-30T11:04:33;7.03;;;3.30;;
60722;SDS011;46574;52.818;6.516;2023-07-30T11:06:59;6.72;;;2.90;;
60722;SDS011;46574;52.818;6.516;2023-07-30T11:09:25;6.78;;;2.38;;
60722;SDS011;46574;52.818;6.516;2023-07-30T11:11:53;6.07;;;2.63;;
60722;SDS011;46574;52.818;6.516;2023-07-30T11:14:20;6.68;;;2.58;;
60722;SDS011;46574;52.818;6.516;2023-07-30T11:16:51;5.45;;;2.15;;
60722;SDS011;46574;52.818;6.516;2023-07-30T11:19:18;6.85;;;2.25;;
60722;SDS011;46574;52.818;6.516;2023-07-30T11:21:45;6.63;;;2.30;;
60722;SDS011;46574;52.818;6.516;2023-07-30T11:24:34;5.95;;;1.90;;
60722;SDS011;46574;52.818;6.516;2023-07-30T11:27:00;8.85;;;2.00;;
60722;SDS011;46574;52.818;6.516;2023-07-30T11:29:27;6.25;;;1.80;;
60722;SDS011;46574;52.818;6.516;2023-07-30T11:31:55;5.60;;;2.03;;
60722;SDS011;46574;52.818;6.516;2023-07-30T11:34:27;6.28;;;1.73;;
60722;SDS011;46574;52.818;6.516;2023-07-30T11:36:53;4.45;;;1.90;;
60722;SDS011;46574;52.818;6.516;2023-07-30T11:39:19;6.93;;;1.88;;
60722;SDS011;46574;52.818;6.516;2023-07-30T11:41:46;7.40;;;2.25;;
60722;SDS011;46574;52.818;6.516;2023-07-30T11:47:03;5.32;;;2.00;;
60722;SDS011;46574;52.818;6.516;2023-07-30T11:49:30;5.88;;;1.75;;
60722;SDS011;46574;52.818;6.516;2023-07-30T11:52:05;7.13;;;2.13;;
60722;SDS011;46574;52.818;6.516;2023-07-30T11:54:36;6.18;;;2.00;;
60722;SDS011;46574;52.818;6.516;2023-07-30T11:57:03;5.03;;;1.90;;
60722;SDS011;46574;52.818;6.516;2023-07-30T11:59:30;6.43;;;1.85;;
60722;SDS011;46574;52.818;6.516;2023-07-30T12:01:56;6.25;;;1.63;;
60722;SDS011;46574;52.818;6.516;2023-07-30T12:04:22;6.05;;;1.80;;
60722;SDS011;46574;52.818;6.516;2023-07-30T12:06:51;7.95;;;1.83;;
60722;SDS011;46574;52.818;6.516;2023-07-30T12:09:21;5.35;;;1.60;;
60722;SDS011;46574;52.818;6.516;2023-07-30T12:14:15;4.97;;;1.73;;
60722;SDS011;46574;52.818;6.516;2023-07-30T12:16:42;5.45;;;1.95;;
60722;SDS011;46574;52.818;6.516;2023-07-30T12:19:07;5.60;;;1.63;;
60722;SDS011;46574;52.818;6.516;2023-07-30T12:21:33;5.78;;;1.83;;
60722;SDS011;46574;52.818;6.516;2023-07-30T12:23:59;5.20;;;1.38;;
60722;SDS011;46574;52.818;6.516;2023-07-30T12:26:25;5.93;;;1.42;;
60722;SDS011;46574;52.818;6.516;2023-07-30T12:28:50;4.97;;;1.58;;
60722;SDS011;46574;52.818;6.516;2023-07-30T12:31:16;5.53;;;1.30;;
60722;SDS011;46574;52.818;6.516;2023-07-30T12:33:43;6.88;;;1.70;;
60722;SDS011;46574;52.818;6.516;2023-07-30T12:36:08;6.05;;;1.50;;
60722;SDS011;46574;52.818;6.516;2023-07-30T12:38:34;4.20;;;1.38;;
60722;SDS011;46574;52.818;6.516;2023-07-30T12:41:00;8.00;;;1.80;;
60722;SDS011;46574;52.818;6.516;2023-07-30T12:43:26;5.13;;;1.60;;
60722;SDS011;46574;52.818;6.516;2023-07-30T12:45:54;4.28;;;1.50;;
60722;SDS011;46574;52.818;6.516;2023-07-30T12:50:45;4.93;;;1.45;;
60722;SDS011;46574;52.818;6.516;2023-07-30T12:53:13;5.77;;;1.60;;
60722;SDS011;46574;52.818;6.516;2023-07-30T12:55:39;5.10;;;1.60;;
60722;SDS011;46574;52.818;6.516;2023-07-30T12:58:08;5.95;;;1.45;;
60722;SDS011;46574;52.818;6.516;2023-07-30T13:00:35;4.72;;;1.40;;
60722;SDS011;46574;52.818;6.516;2023-07-30T13:03:01;4.50;;;1.77;;
60722;SDS011;46574;52.818;6.516;2023-07-30T13:05:27;4.55;;;2.17;;
60722;SDS011;46574;52.818;6.516;2023-07-30T13:07:53;3.08;;;1.27;;
60722;SDS011;46574;52.818;6.516;2023-07-30T13:10:18;4.43;;;1.25;;
60722;SDS011;46574;52.818;6.516;2023-07-30T13:12:44;3.97;;;1.25;;
60722;SDS011;46574;52.818;6.516;2023-07-30T13:15:10;5.07;;;1.48;;
60722;SDS011;46574;52.818;6.516;2023-07-30T13:17:36;3.40;;;1.33;;
60722;SDS011;46574;52.818;6.516;2023-07-30T13:20:04;4.22;;;1.30;;
60722;SDS011;46574;52.818;6.516;2023-07-30T13:22:32;4.07;;;1.98;;
60722;SDS011;46574;52.818;6.516;2023-07-30T13:25:00;3.80;;;1.38;;
60722;SDS011;46574;52.818;6.516;2023-07-30T13:27:26;4.63;;;1.60;;
60722;SDS011;46574;52.818;6.516;2023-07-30T13:29:52;5.68;;;1.70;;
60722;SDS011;46574;52.818;6.516;2023-07-30T13:32:17;4.03;;;1.55;;
60722;SDS011;46574;52.818;6.516;2023-07-30T13:34:43;3.80;;;1.17;;
60722;SDS011;46574;52.818;6.516;2023-07-30T13:37:09;6.05;;;1.48;;
60722;SDS011;46574;52.818;6.516;2023-07-30T13:39:34;3.30;;;1.35;;
60722;SDS011;46574;52.818;6.516;2023-07-30T13:42:02;4.45;;;1.20;;
60722;SDS011;46574;52.818;6.516;2023-07-30T13:44:27;6.03;;;1.48;;
60722;SDS011;46574;52.818;6.516;2023-07-30T13:46:54;4.80;;;1.40;;
60722;SDS011;46574;52.818;6.516;2023-07-30T13:49:20;2.13;;;1.23;;
60722;SDS011;46574;52.818;6.516;2023-07-30T13:51:46;2.35;;;1.13;;
60722;SDS011;46574;52.818;6.516;2023-07-30T13:54:11;4.22;;;1.70;;
60722;SDS011;46574;52.818;6.516;2023-07-30T13:56:38;6.65;;;1.70;;
60722;SDS011;46574;52.818;6.516;2023-07-30T13:59:04;4.93;;;1.45;;
60722;SDS011;46574;52.818;6.516;2023-07-30T14:01:30;3.95;;;1.17;;
60722;SDS011;46574;52.818;6.516;2023-07-30T14:03:56;3.72;;;1.35;;
60722;SDS011;46574;52.818;6.516;2023-07-30T14:06:26;5.07;;;1.40;;
60722;SDS011;46574;52.818;6.516;2023-07-30T14:08:52;1.92;;;0.90;;
60722;SDS011;46574;52.818;6.516;2023-07-30T14:11:18;5.63;;;1.45;;
60722;SDS011;46574;52.818;6.516;2023-07-30T14:13:44;5.35;;;1.30;;
60722;SDS011;46574;52.818;6.516;2023-07-30T14:16:09;4.68;;;1.40;;
60722;SDS011;46574;52.818;6.516;2023-07-30T14:18:35;2.80;;;1.00;;
60722;SDS011;46574;52.818;6.516;2023-07-30T14:21:01;3.17;;;1.00;;
60722;SDS011;46574;52.818;6.516;2023-07-30T14:23:27;2.55;;;1.10;;
60722;SDS011;46574;52.818;6.516;2023-07-30T14:25:53;3.75;;;1.40;;
60722;SDS011;46574;52.818;6.516;2023-07-30T14:28:19;3.63;;;1.20;;
60722;SDS011;46574;52.818;6.516;2023-07-30T14:30:44;4.55;;;1.50;;
60722;SDS011;46574;52.818;6.516;2023-07-30T14:33:10;5.35;;;1.70;;
60722;SDS011;46574;52.818;6.516;2023-07-30T14:35:36;4.20;;;1.42;;
60722;SDS011;46574;52.818;6.516;2023-07-30T14:38:03;5.47;;;1.80;;
60722;SDS011;46574;52.818;6.516;2023-07-30T14:40:30;4.13;;;1.50;;
60722;SDS011;46574;52.818;6.516;2023-07-30T14:42:55;5.38;;;2.00;;
60722;SDS011;46574;52.818;6.516;2023-07-30T14:45:21;5.60;;;1.88;;
60722;SDS011;46574;52.818;6.516;2023-07-30T14:47:47;6.38;;;1.58;;
60722;SDS011;46574;52.818;6.516;2023-07-30T14:50:13;6.95;;;1.77;;
60722;SDS011;46574;52.818;6.516;2023-07-30T14:52:39;4.70;;;1.70;;
60722;SDS011;46574;52.818;6.516;2023-07-30T14:55:05;4.75;;;1.63;;
60722;SDS011;46574;52.818;6.516;2023-07-30T14:57:31;4.80;;;1.48;;
60722;SDS011;46574;52.818;6.516;2023-07-30T14:59:58;5.97;;;1.73;;
60722;SDS011;46574;52.818;6.516;2023-07-30T15:02:28;5.00;;;1.85;;
60722;SDS011;46574;52.818;6.516;2023-07-30T15:04:54;6.05;;;1.88;;